Terminal Aerodrome Forecast
Issued by NWS

Current Version | Previous Version | Text Only | Print | Product List | Glossary On
Versions: 1 2 3 4 5 6 7 8 9 10 11 12
580
FTUS45 KVEF 221131
TAFBIH
TAF
KBIH 221131Z 2212/2312 32006KT P6SM SKC
     FM221800 VRB05KT P6SM SCT120
     FM230300 35008KT P6SM FEW120=

USA.gov is the U.S. government's official web portal to all federal, state and local government web resources and services.